createdAt,value
2022-08-09T00:01:52.566Z,99.90
2022-08-09T00:04:33.870Z,99.90
2022-08-09T00:07:07.810Z,99.90
2022-08-09T00:09:40.660Z,99.90
2022-08-09T00:12:22.306Z,99.90
2022-08-09T00:14:55.965Z,99.90
2022-08-09T00:18:09.380Z,99.90
2022-08-09T00:20:15.317Z,99.90
2022-08-09T00:22:47.337Z,99.90
2022-08-09T00:25:23.062Z,99.90
2022-08-09T00:27:58.848Z,99.90
2022-08-09T00:30:27.235Z,99.90
2022-08-09T00:32:55.526Z,99.90
2022-08-09T00:35:24.839Z,99.90
2022-08-09T00:37:54.720Z,99.90
2022-08-09T00:40:23.368Z,99.90
2022-08-09T00:44:10.158Z,99.90
2022-08-09T00:45:50.576Z,99.90
2022-08-09T00:48:22.624Z,99.90
2022-08-09T00:50:52.243Z,99.90
2022-08-09T00:53:24.478Z,99.90
2022-08-09T00:56:04.926Z,99.90
2022-08-09T00:58:38.074Z,99.90
2022-08-09T01:01:15.973Z,99.90
2022-08-09T01:03:57.236Z,99.90
2022-08-09T01:06:54.207Z,99.90
2022-08-09T01:09:37.338Z,99.90
2022-08-09T01:12:18.703Z,99.90
2022-08-09T01:15:06.012Z,99.90
2022-08-09T01:17:52.748Z,99.90
2022-08-09T01:20:45.997Z,99.90
2022-08-09T01:24:02.270Z,99.90
2022-08-09T01:27:01.849Z,99.90
2022-08-09T01:29:40.887Z,99.90
2022-08-09T01:32:34.100Z,99.90
2022-08-09T01:35:28.619Z,99.90
2022-08-09T01:38:09.746Z,99.90
2022-08-09T01:40:45.278Z,99.90
2022-08-09T01:43:24.056Z,99.90
2022-08-09T01:45:57.987Z,99.90
2022-08-09T01:48:29.864Z,99.90
2022-08-09T01:51:03.613Z,99.90
2022-08-09T01:53:40.987Z,99.90
2022-08-09T01:56:12.673Z,99.90
2022-08-09T01:58:48.970Z,99.90
2022-08-09T02:01:20.357Z,99.90
2022-08-09T02:04:01.501Z,99.90
2022-08-09T02:06:54.380Z,99.90
2022-08-09T02:09:42.624Z,99.90
2022-08-09T02:12:21.237Z,99.90
2022-08-09T02:14:55.881Z,99.90
2022-08-09T02:18:01.271Z,99.90
2022-08-09T02:20:25.299Z,99.90
2022-08-09T02:23:08.907Z,99.90
2022-08-09T02:25:52.572Z,99.90
2022-08-09T02:28:25.712Z,99.90
2022-08-09T02:31:03.602Z,99.90
2022-08-09T02:34:07.022Z,99.90
2022-08-09T02:36:35.767Z,99.90
2022-08-09T02:39:14.564Z,99.90
2022-08-09T02:41:57.517Z,99.90
2022-08-09T02:44:32.168Z,99.90
2022-08-09T02:47:09.815Z,99.90
2022-08-09T02:49:47.160Z,99.90
2022-08-09T02:52:38.805Z,99.90
2022-08-09T02:55:19.970Z,99.90
2022-08-09T02:58:00.214Z,99.90
2022-08-09T03:00:58.005Z,99.90
2022-08-09T03:03:37.295Z,99.90
2022-08-09T03:06:22.510Z,99.90
2022-08-09T03:08:54.652Z,99.90
2022-08-09T03:12:04.757Z,99.90
2022-08-09T03:14:15.995Z,99.90
2022-08-09T03:16:48.044Z,99.90
2022-08-09T03:19:58.528Z,99.90
2022-08-09T03:22:25.101Z,99.90
2022-08-09T03:25:06.140Z,99.90
2022-08-09T03:27:55.198Z,99.90
2022-08-09T03:30:29.719Z,99.90
2022-08-09T03:33:16.918Z,99.90
2022-08-09T03:36:12.878Z,99.90
2022-08-09T03:38:42.966Z,99.90
2022-08-09T03:41:15.029Z,99.90
2022-08-09T03:44:03.982Z,99.90
2022-08-09T03:46:35.108Z,99.90
2022-08-09T03:49:08.046Z,99.90
2022-08-09T03:51:56.084Z,99.90
2022-08-09T03:54:38.948Z,99.90
2022-08-09T03:57:18.403Z,99.90
2022-08-09T03:59:53.326Z,99.90
2022-08-09T04:02:28.311Z,99.90
2022-08-09T04:05:06.668Z,99.90
2022-08-09T04:07:52.843Z,99.90
2022-08-09T04:10:28.777Z,99.90
2022-08-09T04:13:04.519Z,99.90
2022-08-09T04:16:18.697Z,99.90
2022-08-09T04:18:22.507Z,99.90
2022-08-09T04:20:53.568Z,99.90
2022-08-09T04:23:25.885Z,99.90
2022-08-09T04:25:55.762Z,99.90
2022-08-09T04:28:33.077Z,99.90
2022-08-09T04:31:09.333Z,99.90
2022-08-09T04:33:52.281Z,99.90
2022-08-09T04:36:27.367Z,99.90
2022-08-09T04:39:00.444Z,99.90
2022-08-09T04:41:33.296Z,99.90
2022-08-09T04:44:09.571Z,99.90
2022-08-09T04:46:59.173Z,99.90
2022-08-09T04:49:52.157Z,99.90
2022-08-09T04:52:26.432Z,99.90
2022-08-09T04:54:59.709Z,99.90
2022-08-09T04:57:58.481Z,99.90
2022-08-09T05:00:18.319Z,99.90
2022-08-09T05:02:48.675Z,99.90
2022-08-09T05:05:51.851Z,99.90
2022-08-09T05:08:09.708Z,99.90
2022-08-09T05:10:44.581Z,99.90
2022-08-09T05:13:14.366Z,99.90
2022-08-09T05:15:52.097Z,99.90
2022-08-09T05:18:37.906Z,99.90
2022-08-09T05:21:20.855Z,99.90
2022-08-09T05:24:00.892Z,99.90
2022-08-09T05:26:36.031Z,99.90
2022-08-09T05:29:21.051Z,99.90
2022-08-09T05:31:57.500Z,99.90
2022-08-09T05:34:31.011Z,99.90
2022-08-09T05:37:06.141Z,99.90
2022-08-09T05:39:42.602Z,99.90
2022-08-09T05:42:18.004Z,99.90
2022-08-09T05:44:52.214Z,99.90
2022-08-09T05:47:22.802Z,99.90
2022-08-09T05:50:25.926Z,99.90
2022-08-09T05:52:41.858Z,99.90
2022-08-09T05:55:20.320Z,99.90
2022-08-09T05:57:57.638Z,99.90
2022-08-09T06:00:29.540Z,99.90
2022-08-09T06:03:00.045Z,99.90
2022-08-09T06:05:57.319Z,99.90
2022-08-09T06:08:24.454Z,99.90
2022-08-09T06:10:55.957Z,99.90
2022-08-09T06:13:28.295Z,99.90
2022-08-09T06:15:57.101Z,99.90
2022-08-09T06:18:29.054Z,99.90
2022-08-09T06:20:58.660Z,99.90
2022-08-09T06:23:58.952Z,99.90
2022-08-09T06:26:21.062Z,99.90
2022-08-09T06:29:00.148Z,99.90
2022-08-09T06:31:39.730Z,99.90
2022-08-09T06:34:26.114Z,99.60
2022-08-09T06:36:57.352Z,99.20
2022-08-09T06:39:48.486Z,99.20
2022-08-09T06:42:20.138Z,99.10
2022-08-09T06:44:54.698Z,99.00
2022-08-09T06:47:24.045Z,99.30
2022-08-09T06:50:13.221Z,99.50
2022-08-09T06:52:46.916Z,99.80
2022-08-09T06:55:17.615Z,99.60
2022-08-09T06:58:03.064Z,99.90
2022-08-09T07:00:49.124Z,99.90
2022-08-09T07:03:26.976Z,99.90
2022-08-09T07:06:04.866Z,99.40
2022-08-09T07:08:37.304Z,98.60
2022-08-09T07:11:08.633Z,98.30
2022-08-09T07:13:45.433Z,98.30
2022-08-09T07:16:44.063Z,97.60
2022-08-09T07:19:23.589Z,96.40
2022-08-09T07:21:56.975Z,95.50
2022-08-09T07:24:32.096Z,96.60
2022-08-09T07:27:33.072Z,97.70
2022-08-09T07:30:00.703Z,98.20
2022-08-09T07:32:33.158Z,97.10
2022-08-09T07:35:10.639Z,96.40
2022-08-09T07:37:44.603Z,95.20
2022-08-09T07:40:17.341Z,95.10
2022-08-09T07:42:58.575Z,94.70
2022-08-09T07:45:39.128Z,94.30
2022-08-09T07:48:28.498Z,94.30
2022-08-09T07:51:10.052Z,93.80
2022-08-09T07:54:05.721Z,94.20
2022-08-09T07:56:49.323Z,94.80
2022-08-09T07:59:33.810Z,95.10
2022-08-09T08:02:09.712Z,96.00
2022-08-09T08:04:41.534Z,96.70
2022-08-09T08:08:43.436Z,96.50
2022-08-09T08:10:08.704Z,96.30
2022-08-09T08:12:45.147Z,96.10
2022-08-09T08:15:17.603Z,95.30
2022-08-09T08:17:53.374Z,94.60
2022-08-09T08:20:30.279Z,94.90
2022-08-09T08:23:06.263Z,96.50
2022-08-09T08:25:48.512Z,97.30
2022-08-09T08:28:31.862Z,98.70
2022-08-09T08:31:10.508Z,98.20
2022-08-09T08:33:53.489Z,97.80
2022-08-09T08:36:29.585Z,97.10
2022-08-09T08:39:00.497Z,95.90
2022-08-09T08:41:50.591Z,95.00
2022-08-09T08:44:27.220Z,94.30
2022-08-09T08:46:59.494Z,92.40
2022-08-09T08:49:46.393Z,91.50
2022-08-09T08:52:57.458Z,90.90
2022-08-09T08:55:11.573Z,91.20
2022-08-09T08:57:43.650Z,91.10
2022-08-09T09:00:27.844Z,90.40
2022-08-09T09:03:11.385Z,90.00
2022-08-09T09:05:59.593Z,88.50
2022-08-09T09:08:37.779Z,87.10
2022-08-09T09:11:13.720Z,85.00
2022-08-09T09:13:55.342Z,87.30
2022-08-09T09:16:31.440Z,89.40
2022-08-09T09:19:22.505Z,88.90
2022-08-09T09:22:07.747Z,88.20
2022-08-09T09:24:44.182Z,90.80
2022-08-09T09:27:21.954Z,91.10
2022-08-09T09:30:32.950Z,90.80
2022-08-09T09:33:16.631Z,91.00
2022-08-09T09:36:02.708Z,91.60
2022-08-09T09:38:45.212Z,91.50
2022-08-09T09:41:32.540Z,91.30
2022-08-09T09:44:11.850Z,89.70
2022-08-09T09:46:51.380Z,90.90
2022-08-09T09:49:23.548Z,90.60
2022-08-09T09:52:24.127Z,90.00
2022-08-09T09:55:16.200Z,90.60
2022-08-09T09:58:16.301Z,91.30
2022-08-09T10:00:54.116Z,89.60
2022-08-09T10:03:57.959Z,87.90
2022-08-09T10:06:32.138Z,88.00
2022-08-09T10:09:11.711Z,89.50
2022-08-09T10:12:12.144Z,86.60
2022-08-09T10:14:48.396Z,88.30
2022-08-09T10:17:50.992Z,86.90
2022-08-09T10:20:27.684Z,87.60
2022-08-09T10:23:20.009Z,84.40
2022-08-09T10:26:06.553Z,84.40
2022-08-09T10:28:48.604Z,83.70
2022-08-09T10:34:32.322Z,83.30
2022-08-09T10:37:02.244Z,85.20
2022-08-09T10:39:40.570Z,84.20
2022-08-09T10:42:18.576Z,85.50
2022-08-09T10:44:50.976Z,84.40
2022-08-09T10:48:20.344Z,85.00
2022-08-09T10:51:05.461Z,85.00
2022-08-09T10:53:54.220Z,86.50
2022-08-09T10:56:25.606Z,86.00
2022-08-09T10:58:56.647Z,88.40
2022-08-09T11:03:13.858Z,90.90
2022-08-09T11:04:33.267Z,91.50
2022-08-09T11:07:56.881Z,90.90
2022-08-09T11:10:57.837Z,90.50
2022-08-09T11:13:50.041Z,89.90
2022-08-09T11:16:41.010Z,90.10
2022-08-09T11:19:11.263Z,90.50
2022-08-09T11:22:10.363Z,90.50
2022-08-09T11:25:08.998Z,90.70
2022-08-09T11:28:04.835Z,91.20
2022-08-09T11:30:38.175Z,91.50
2022-08-09T11:33:15.737Z,91.70
2022-08-09T11:35:49.323Z,91.30
2022-08-09T11:38:32.499Z,90.10
2022-08-09T11:41:06.408Z,88.80
2022-08-09T11:43:43.784Z,90.20
2022-08-09T11:46:18.513Z,89.40
2022-08-09T11:49:05.134Z,90.20
2022-08-09T11:53:03.372Z,90.30
2022-08-09T11:55:51.593Z,90.00
2022-08-09T11:58:50.035Z,90.10
2022-08-09T12:02:00.692Z,87.60
2022-08-09T12:04:28.614Z,89.20
2022-08-09T12:07:00.568Z,89.80
2022-08-09T12:09:33.597Z,90.10
2022-08-09T12:12:12.152Z,90.20
2022-08-09T12:15:08.380Z,90.00
2022-08-09T12:17:44.365Z,89.10
2022-08-09T12:20:21.983Z,90.10
2022-08-09T12:22:56.662Z,88.90
2022-08-09T12:25:36.667Z,88.00
2022-08-09T12:29:10.642Z,86.60
2022-08-09T12:31:11.110Z,84.50
2022-08-09T12:34:00.755Z,84.10
2022-08-09T12:36:32.019Z,83.20
2022-08-09T12:39:02.461Z,81.70
2022-08-09T12:41:39.784Z,80.80
2022-08-09T12:44:12.912Z,81.50
2022-08-09T12:46:49.185Z,81.70
2022-08-09T12:49:21.313Z,82.20
2022-08-09T12:52:02.006Z,83.60
2022-08-09T12:56:12.304Z,84.50
2022-08-09T12:57:42.911Z,84.60
2022-08-09T13:00:25.101Z,86.30
2022-08-09T13:02:58.227Z,85.30
2022-08-09T13:05:52.535Z,85.00
2022-08-09T13:08:39.821Z,84.50
2022-08-09T13:11:22.699Z,85.80
2022-08-09T13:14:43.008Z,86.60
2022-08-09T13:16:50.327Z,87.10
2022-08-09T13:20:10.125Z,86.70
2022-08-09T13:22:38.240Z,85.50
2022-08-09T13:25:14.068Z,85.90
2022-08-09T13:27:48.748Z,84.60
2022-08-09T13:30:50.806Z,85.60
2022-08-09T13:33:52.451Z,84.80
2022-08-09T13:36:38.222Z,84.40
2022-08-09T13:41:17.675Z,84.30
2022-08-09T13:42:00.908Z,83.40
2022-08-09T13:44:31.536Z,84.10
2022-08-09T13:47:28.962Z,83.80
2022-08-09T13:49:57.606Z,83.50
2022-08-09T13:52:31.369Z,84.70
2022-08-09T13:55:05.155Z,83.80
2022-08-09T13:57:39.709Z,84.40
2022-08-09T14:00:15.460Z,83.50
2022-08-09T14:03:03.061Z,84.00
2022-08-09T14:06:01.122Z,84.10
2022-08-09T14:08:26.830Z,82.50
2022-08-09T14:10:57.284Z,83.30
2022-08-09T14:14:15.405Z,80.30
2022-08-09T14:16:18.302Z,80.10
2022-08-09T14:18:50.603Z,82.50
2022-08-09T14:21:24.302Z,80.00
2022-08-09T14:23:56.926Z,80.50
2022-08-09T14:26:31.659Z,81.50
2022-08-09T14:29:03.566Z,81.50
2022-08-09T14:31:50.175Z,81.40
2022-08-09T14:34:31.585Z,82.40
2022-08-09T14:37:06.100Z,82.60
2022-08-09T14:39:40.217Z,81.30
2022-08-09T14:42:39.233Z,81.80
2022-08-09T14:46:58.607Z,80.70
2022-08-09T14:48:02.126Z,81.00
2022-08-09T14:50:34.482Z,80.80
2022-08-09T14:53:11.297Z,80.60
2022-08-09T14:55:41.864Z,80.50
2022-08-09T14:58:11.411Z,79.70
2022-08-09T15:00:42.459Z,79.70
2022-08-09T15:03:11.541Z,78.40
2022-08-09T15:05:52.375Z,77.80
2022-08-09T15:08:30.353Z,79.00
2022-08-09T15:11:00.854Z,80.00
2022-08-09T15:13:48.592Z,80.30
2022-08-09T15:16:20.559Z,80.00
2022-08-09T15:18:49.842Z,79.20
2022-08-09T15:21:56.426Z,80.40
2022-08-09T15:24:12.938Z,80.30
2022-08-09T15:26:46.085Z,79.50
2022-08-09T15:30:48.497Z,79.30
2022-08-09T15:32:05.334Z,79.20
2022-08-09T15:34:53.771Z,79.70
2022-08-09T15:37:57.121Z,79.00
2022-08-09T15:40:32.116Z,78.90
2022-08-09T15:43:02.452Z,79.10
2022-08-09T15:45:51.766Z,77.90
2022-08-09T15:48:28.765Z,77.30
2022-08-09T15:51:00.612Z,79.30
2022-08-09T15:54:03.984Z,78.80
2022-08-09T15:56:28.651Z,79.90
2022-08-09T15:58:57.999Z,80.10
2022-08-09T16:01:26.791Z,80.20
2022-08-09T16:04:00.612Z,80.50
2022-08-09T16:06:35.700Z,81.00
2022-08-09T16:09:06.928Z,81.20
2022-08-09T16:11:36.974Z,80.40
2022-08-09T16:14:07.887Z,80.90
2022-08-09T16:16:39.067Z,81.00
2022-08-09T16:19:13.599Z,80.40
2022-08-09T16:21:48.480Z,79.80
2022-08-09T16:24:33.324Z,79.50
2022-08-09T16:27:05.137Z,79.60
2022-08-09T16:29:36.946Z,79.40
2022-08-09T16:32:19.669Z,79.70
2022-08-09T16:34:58.316Z,80.10
2022-08-09T16:37:55.328Z,81.00
2022-08-09T16:40:29.996Z,81.30
2022-08-09T16:43:09.589Z,82.60
2022-08-09T16:45:44.242Z,83.60
2022-08-09T16:48:39.567Z,84.10
2022-08-09T16:51:08.123Z,83.90
2022-08-09T16:54:09.075Z,84.20
2022-08-09T16:56:31.879Z,84.30
2022-08-09T16:59:06.720Z,85.90
2022-08-09T17:01:42.010Z,85.50
2022-08-09T17:04:20.057Z,85.70
2022-08-09T17:08:43.816Z,85.10
2022-08-09T17:09:47.514Z,86.10
2022-08-09T17:12:16.753Z,85.70
2022-08-09T17:14:48.543Z,85.70
2022-08-09T17:17:26.769Z,86.00
2022-08-09T17:20:30.272Z,86.20
2022-08-09T17:22:49.947Z,86.50
2022-08-09T17:25:19.943Z,85.80
2022-08-09T17:27:54.575Z,86.00
2022-08-09T17:30:28.163Z,86.30
2022-08-09T17:33:04.682Z,85.60
2022-08-09T17:35:40.776Z,85.80
2022-08-09T17:38:13.767Z,86.30
2022-08-09T17:40:58.709Z,85.80
2022-08-09T17:43:33.516Z,86.30
2022-08-09T17:46:09.180Z,85.80
2022-08-09T17:48:51.532Z,86.00
2022-08-09T17:51:22.260Z,86.60
2022-08-09T17:53:54.915Z,86.50
2022-08-09T17:56:29.158Z,86.70
2022-08-09T17:59:11.401Z,86.90
2022-08-09T18:02:06.298Z,87.60
2022-08-09T18:04:30.993Z,87.20
2022-08-09T18:07:00.089Z,87.20
2022-08-09T18:09:40.035Z,87.20
2022-08-09T18:12:17.957Z,87.20
2022-08-09T18:14:53.740Z,87.30
2022-08-09T18:18:02.470Z,87.20
2022-08-09T18:20:56.290Z,87.40
2022-08-09T18:23:07.381Z,87.60
2022-08-09T18:25:52.925Z,87.70
2022-08-09T18:30:39.572Z,88.00
2022-08-09T18:31:13.493Z,87.50
2022-08-09T18:33:52.970Z,87.80
2022-08-09T18:36:26.031Z,87.90
2022-08-09T18:39:02.807Z,88.30
2022-08-09T18:41:34.413Z,88.00
2022-08-09T18:44:13.185Z,88.30
2022-08-09T18:46:51.367Z,88.70
2022-08-09T18:49:41.667Z,88.40
2022-08-09T18:52:12.321Z,88.90
2022-08-09T18:54:49.528Z,89.20
2022-08-09T18:57:23.098Z,89.40
2022-08-09T18:59:57.453Z,89.40
2022-08-09T19:02:32.087Z,90.00
2022-08-09T19:05:04.390Z,90.10
2022-08-09T19:08:04.854Z,90.40
2022-08-09T19:10:37.690Z,90.30
2022-08-09T19:13:18.597Z,90.80
2022-08-09T19:15:56.354Z,90.50
2022-08-09T19:18:33.368Z,91.60
2022-08-09T19:21:09.256Z,91.50
2022-08-09T19:24:37.624Z,92.40
2022-08-09T19:26:34.651Z,93.10
2022-08-09T19:29:15.082Z,93.90
2022-08-09T19:31:51.586Z,94.30
2022-08-09T19:34:22.689Z,94.80
2022-08-09T19:36:55.688Z,95.30
2022-08-09T19:39:29.116Z,95.30
2022-08-09T19:42:19.782Z,95.40
2022-08-09T19:44:52.311Z,95.90
2022-08-09T19:47:23.669Z,96.00
2022-08-09T19:50:05.318Z,95.90
2022-08-09T19:52:51.757Z,96.00
2022-08-09T19:55:25.580Z,95.30
2022-08-09T19:57:59.615Z,95.20
2022-08-09T20:00:28.111Z,95.30
2022-08-09T20:04:10.993Z,95.60
2022-08-09T20:05:46.755Z,95.50
2022-08-09T20:08:33.220Z,95.90
2022-08-09T20:11:04.174Z,96.10
2022-08-09T20:13:37.227Z,95.40
2022-08-09T20:16:33.879Z,95.30
2022-08-09T20:19:42.622Z,95.40
2022-08-09T20:21:56.660Z,95.80
2022-08-09T20:24:31.686Z,95.30
2022-08-09T20:27:05.751Z,95.80
2022-08-09T20:29:39.047Z,95.90
2022-08-09T20:32:29.948Z,96.10
2022-08-09T20:34:58.130Z,95.20
2022-08-09T20:37:37.316Z,96.30
2022-08-09T20:40:27.317Z,96.70
2022-08-09T20:43:12.058Z,97.20
2022-08-09T20:45:57.034Z,97.60
2022-08-09T20:48:29.751Z,97.70
2022-08-09T20:50:59.845Z,98.10
2022-08-09T20:53:37.355Z,98.30
2022-08-09T20:56:20.074Z,98.50
2022-08-09T20:58:58.199Z,98.60
2022-08-09T21:01:34.012Z,99.40
2022-08-09T21:05:51.131Z,99.40
2022-08-09T21:07:13.002Z,99.50
2022-08-09T21:09:55.724Z,99.70
2022-08-09T21:15:23.885Z,99.90
2022-08-09T21:18:21.373Z,99.80
2022-08-09T21:20:54.571Z,99.90
2022-08-09T21:23:26.561Z,99.90
2022-08-09T21:26:15.403Z,99.90
2022-08-09T21:28:55.571Z,99.90
2022-08-09T21:31:24.545Z,99.90
2022-08-09T21:34:13.288Z,99.90
2022-08-09T21:36:55.324Z,99.90
2022-08-09T21:39:28.163Z,99.90
2022-08-09T21:42:11.435Z,99.90
2022-08-09T21:44:42.883Z,99.90
2022-08-09T21:47:18.145Z,99.90
2022-08-09T21:49:48.071Z,99.90
2022-08-09T21:52:20.799Z,99.90
2022-08-09T21:55:02.809Z,99.90
2022-08-09T21:57:39.311Z,99.90
2022-08-09T22:00:32.330Z,99.90
2022-08-09T22:03:05.677Z,99.90
2022-08-09T22:05:37.625Z,99.90
2022-08-09T22:08:15.205Z,99.90
2022-08-09T22:11:50.167Z,99.90
2022-08-09T22:13:35.859Z,99.90
2022-08-09T22:16:10.576Z,99.90
2022-08-09T22:18:54.484Z,99.90
2022-08-09T22:21:27.424Z,99.90
2022-08-09T22:24:16.898Z,99.90
2022-08-09T22:26:51.033Z,99.90
2022-08-09T22:29:28.991Z,99.90
2022-08-09T22:32:12.624Z,99.90
2022-08-09T22:35:06.351Z,99.90
2022-08-09T22:37:40.681Z,99.90
2022-08-09T22:40:19.966Z,99.90
2022-08-09T22:42:49.535Z,99.90
2022-08-09T22:48:18.481Z,99.90
2022-08-09T22:48:34.422Z,99.90
2022-08-09T22:50:55.901Z,99.90
2022-08-09T22:53:24.891Z,99.90
2022-08-09T22:56:29.712Z,99.90
2022-08-09T22:58:50.769Z,99.90
2022-08-09T23:01:19.698Z,99.90
2022-08-09T23:04:03.513Z,99.90
2022-08-09T23:06:49.229Z,99.90
2022-08-09T23:09:18.055Z,99.90
2022-08-09T23:11:46.574Z,99.90
2022-08-09T23:14:17.221Z,99.90
2022-08-09T23:16:46.406Z,99.90
2022-08-09T23:19:16.030Z,99.90
2022-08-09T23:21:44.525Z,99.90
2022-08-09T23:24:13.328Z,99.90
2022-08-09T23:26:42.392Z,99.90
2022-08-09T23:29:13.736Z,99.90
2022-08-09T23:31:42.826Z,99.90
2022-08-09T23:34:11.235Z,99.90
2022-08-09T23:36:40.900Z,99.90
2022-08-09T23:39:09.660Z,99.90
2022-08-09T23:41:38.430Z,99.90
2022-08-09T23:44:07.128Z,99.90
2022-08-09T23:46:35.806Z,99.90
2022-08-09T23:49:04.601Z,99.90
2022-08-09T23:51:32.909Z,99.90
2022-08-09T23:54:03.628Z,99.90
2022-08-09T23:56:53.615Z,99.90
2022-08-09T23:59:22.975Z,99.90
